Time;durP1;ratioP1;P1;durP2;ratioP2;P2;SDS_P1;SDS_P2;PMS_P1;PMS_P2;Temp;Humidity;BMP_temperature;BMP_pressure;BME280_temperature;BME280_humidity;BME280_pressure;Samples;Min_cycle;Max_cycle;Signal;HPM_P1;HPM_P2
2023/06/04 00:01:57;;;;;;;0.68;0.55;;;;;;;15.36;55.10;101526.91;5045928;28;20032;-61
2023/06/04 00:04:23;;;;;;;1.13;0.32;;;;;;;15.29;55.58;101521.41;5045962;28;20033;-62
2023/06/04 00:06:49;;;;;;;0.88;0.35;;;;;;;15.39;55.45;101529.69;5049135;28;20202;-62
2023/06/04 00:09:15;;;;;;;0.30;0.25;;;;;;;15.30;55.91;101522.94;5046722;28;20085;-62
2023/06/04 00:11:40;;;;;;;0.70;0.40;;;;;;;15.37;55.86;101531.97;5051577;28;20032;-63
2023/06/04 00:14:06;;;;;;;2.40;0.50;;;;;;;15.41;56.16;101525.84;5038265;28;20029;-62
2023/06/04 00:16:31;;;;;;;1.20;0.70;;;;;;;15.30;56.70;101521.03;5038522;28;20403;-60
2023/06/04 00:18:57;;;;;;;0.50;0.50;;;;;;;15.36;56.54;101518.78;5051661;28;20035;-62
2023/06/04 00:21:24;;;;;;;0.20;0.20;;;;;;;15.36;56.77;101518.78;5041151;28;20563;-63
2023/06/04 00:23:50;;;;;;;1.23;0.63;;;;;;;15.23;56.79;101512.75;5041393;28;20120;-62
2023/06/04 00:26:19;;;;;;;0.40;0.40;;;;;;;15.15;57.05;101518.44;5052454;28;20116;-63
2023/06/04 00:28:47;;;;;;;;;;;;;;;15.12;57.19;101511.03;5051707;28;20037;-61
2023/06/04 00:31:12;;;;;;;0.30;0.30;;;;;;;15.02;57.26;101517.09;5051588;28;19925;-63
2023/06/04 00:33:41;;;;;;;0.55;0.40;;;;;;;14.96;57.93;101513.13;5047661;28;20021;-62
2023/06/04 00:36:07;;;;;;;1.10;0.60;;;;;;;14.77;58.44;101503.09;5042597;28;20033;-63
2023/06/04 00:38:33;;;;;;;0.50;0.35;;;;;;;14.72;58.54;101503.41;5050578;28;20106;-62
2023/06/04 00:40:58;;;;;;;0.47;0.45;;;;;;;14.74;58.80;101498.41;5052492;28;20064;-63
2023/06/04 00:43:27;;;;;;;0.55;0.50;;;;;;;14.75;59.35;101504.63;5048072;28;20029;-62
2023/06/04 00:45:53;;;;;;;0.63;0.38;;;;;;;14.52;59.33;101501.88;5050879;28;20368;-60
2023/06/04 00:48:20;;;;;;;0.57;0.40;;;;;;;14.54;59.95;101502.31;5050951;28;20035;-62
2023/06/04 00:50:47;;;;;;;1.10;0.68;;;;;;;14.37;60.69;101500.84;5051041;28;20029;-61
2023/06/04 00:53:13;;;;;;;0.32;0.32;;;;;;;14.38;61.31;101501.63;5035985;28;20026;-63
2023/06/04 00:55:38;;;;;;;0.30;0.22;;;;;;;14.55;60.85;101508.50;5043806;28;20037;-62
2023/06/04 00:58:04;;;;;;;0.65;0.40;;;;;;;14.48;60.99;101501.03;5049531;28;20036;-62
2023/06/04 01:00:32;;;;;;;0.82;0.68;;;;;;;14.36;61.23;101507.41;5049012;28;20033;-62
2023/06/04 01:03:02;;;;;;;0.82;0.52;;;;;;;14.31;61.61;101506.91;5046798;28;20517;-63
2023/06/04 01:05:43;;;;;;;0.68;0.35;;;;;;;14.26;62.04;101510.69;5048791;28;20659;-63
2023/06/04 01:08:10;;;;;;;3.85;0.50;;;;;;;14.34;61.94;101506.97;5050372;28;20431;-62
2023/06/04 01:10:36;;;;;;;1.05;0.60;;;;;;;14.51;61.45;101504.94;5047436;28;20037;-62
2023/06/04 01:13:01;;;;;;;0.60;0.50;;;;;;;14.33;61.21;101502.72;5049301;28;20033;-63
2023/06/04 01:15:27;;;;;;;0.77;0.40;;;;;;;14.43;61.58;101494.00;5051391;28;20033;-62
2023/06/04 01:18:03;;;;;;;0.95;0.50;;;;;;;14.39;61.52;101500.47;5048316;28;20029;-63
2023/06/04 01:20:40;;;;;;;0.55;0.43;;;;;;;14.46;60.79;101497.88;5038560;28;20117;-62
2023/06/04 01:23:17;;;;;;;1.23;0.57;;;;;;;14.36;61.60;101507.41;5064217;28;20033;-63
2023/06/04 01:25:45;;;;;;;1.55;0.40;;;;;;;14.20;62.07;101501.28;5049278;28;20131;-61
2023/06/04 01:28:13;;;;;;;0.25;0.25;;;;;;;14.25;62.53;101508.31;5049468;28;20514;-63
2023/06/04 01:30:43;;;;;;;0.40;0.30;;;;;;;14.31;61.65;101505.00;5046560;28;20387;-63
2023/06/04 01:33:10;;;;;;;0.52;0.52;;;;;;;14.03;62.58;101492.78;5050198;28;20475;-62
2023/06/04 01:35:37;;;;;;;0.75;0.60;;;;;;;14.12;62.70;101488.72;5049574;28;20041;-60
2023/06/04 01:38:02;;;;;;;0.40;0.40;;;;;;;14.02;63.38;101499.34;5049286;28;20032;-63
2023/06/04 01:40:28;;;;;;;0.57;0.57;;;;;;;14.10;63.46;101496.44;5040036;28;20033;-63
2023/06/04 01:42:54;;;;;;;0.20;0.20;;;;;;;14.04;63.78;101492.44;5064530;28;20518;-61
2023/06/04 01:45:23;;;;;;;0.40;0.35;;;;;;;14.03;63.79;101496.25;5047395;28;20032;-62
2023/06/04 01:48:09;;;;;;;1.15;0.73;;;;;;;14.00;63.79;101499.69;5030059;28;20470;-61
2023/06/04 01:50:35;;;;;;;1.70;0.60;;;;;;;13.94;63.80;101494.91;4979906;28;20038;-62
2023/06/04 01:53:00;;;;;;;0.25;0.20;;;;;;;13.72;64.54;101488.31;4988126;28;20077;-62
2023/06/04 01:55:28;;;;;;;0.38;0.30;;;;;;;13.72;65.07;101496.41;4962903;28;20125;-63
2023/06/04 01:57:53;;;;;;;0.50;0.47;;;;;;;13.52;65.02;101489.41;4977016;28;20046;-63
2023/06/04 02:00:19;;;;;;;0.43;0.40;;;;;;;13.52;65.84;101497.53;4974763;28;20043;-62
2023/06/04 02:02:45;;;;;;;0.50;0.50;;;;;;;13.45;66.51;101489.25;4967424;28;20049;-62
2023/06/04 02:05:11;;;;;;;0.43;0.30;;;;;;;13.41;66.40;101485.69;4978471;28;20525;-63
2023/06/04 02:07:39;;;;;;;0.75;0.40;;;;;;;13.45;66.18;101481.13;4982257;28;20038;-62
2023/06/04 02:10:09;;;;;;;0.40;0.32;;;;;;;13.41;66.77;101480.28;4978908;28;20130;-62
2023/06/04 02:12:38;;;;;;;0.65;0.30;;;;;;;13.55;66.04;101483.28;4966975;28;20030;-61
2023/06/04 02:15:04;;;;;;;0.68;0.30;;;;;;;13.47;65.90;101478.88;4983701;28;20046;-61
2023/06/04 02:17:32;;;;;;;0.20;0.20;;;;;;;13.37;66.61;101490.22;4982736;28;20034;-62
2023/06/04 02:19:59;;;;;;;0.45;0.30;;;;;;;13.22;67.09;101489.09;4983108;28;20042;-62
2023/06/04 02:22:25;;;;;;;0.40;0.30;;;;;;;13.31;67.22;101484.31;4968714;28;20118;-63
2023/06/04 02:24:51;;;;;;;1.17;0.73;;;;;;;13.38;66.43;101489.09;4987349;28;20070;-59
2023/06/04 02:27:17;;;;;;;0.50;0.40;;;;;;;13.50;66.03;101494.38;5010894;28;20392;-62
2023/06/04 02:29:43;;;;;;;0.55;0.50;;;;;;;13.46;66.15;101491.59;5048751;28;20021;-61
2023/06/04 02:32:09;;;;;;;0.30;0.30;;;;;;;13.32;66.61;101485.88;5027762;28;20036;-63
2023/06/04 02:34:35;;;;;;;0.40;0.40;;;;;;;13.00;67.72;101492.44;5049536;28;20096;-61
2023/06/04 02:37:02;;;;;;;0.25;0.25;;;;;;;13.06;67.60;101487.56;5049284;28;20112;-61
2023/06/04 02:39:27;;;;;;;0.63;0.50;;;;;;;13.16;66.85;101484.34;5049034;28;20086;-61
2023/06/04 02:41:53;;;;;;;0.38;0.35;;;;;;;12.99;68.38;101484.69;5049023;28;20021;-62
2023/06/04 02:44:18;;;;;;;0.38;0.25;;;;;;;12.83;68.66;101484.69;5048286;28;20458;-62
2023/06/04 02:46:44;;;;;;;0.30;0.30;;;;;;;12.64;70.16;101479.16;5043956;28;20400;-63
2023/06/04 02:49:13;;;;;;;0.30;0.30;;;;;;;12.65;69.67;101488.84;5043684;28;20067;-59
2023/06/04 02:51:40;;;;;;;1.30;0.50;;;;;;;12.61;70.05;101490.69;5035679;28;20483;-62
2023/06/04 02:54:06;;;;;;;0.50;0.30;;;;;;;12.64;69.73;101488.06;5055666;28;20028;-61
2023/06/04 02:56:52;;;;;;;0.63;0.32;;;;;;;12.76;69.76;101494.50;5032038;28;20041;-62
2023/06/04 02:59:17;;;;;;;0.28;0.20;;;;;;;12.80;69.09;101492.69;4981771;28;20046;-62
2023/06/04 03:01:43;;;;;;;0.20;0.20;;;;;;;12.88;68.79;101499.84;4982696;28;20543;-62
2023/06/04 03:04:10;;;;;;;0.32;0.30;;;;;;;13.00;68.47;101497.84;4971595;28;20038;-61
2023/06/04 03:06:38;;;;;;;1.20;0.40;;;;;;;12.83;68.32;101492.00;4971716;28;20053;-61
2023/06/04 03:09:04;;;;;;;0.40;0.35;;;;;;;12.96;67.87;101488.06;4965831;28;20026;-61
2023/06/04 03:11:29;;;;;;;0.35;0.30;;;;;;;12.98;68.08;101492.00;4955324;28;20051;-61
2023/06/04 03:13:55;;;;;;;0.20;0.20;;;;;;;12.65;68.39;101492.34;4988210;28;20026;-61
2023/06/04 03:16:21;;;;;;;0.65;0.65;;;;;;;12.60;69.54;101489.88;4985183;28;20548;-61
2023/06/04 03:18:46;;;;;;;0.35;0.30;;;;;;;12.77;68.69;101487.97;4986024;28;20038;-61
2023/06/04 03:21:13;;;;;;;1.63;0.57;;;;;;;12.93;68.12;101484.13;4979298;28;20038;-62
2023/06/04 03:23:39;;;;;;;0.95;0.40;;;;;;;12.73;68.28;101498.72;4977565;28;20418;-61
2023/06/04 03:26:06;;;;;;;0.40;0.32;;;;;;;12.57;68.96;101479.78;4971188;28;20030;-62
2023/06/04 03:28:32;;;;;;;0.52;0.50;;;;;;;12.76;68.71;101475.59;4986480;28;20042;-61
2023/06/04 03:31:00;;;;;;;0.30;0.30;;;;;;;12.74;69.07;101483.28;4971071;28;20046;-61
2023/06/04 03:33:26;;;;;;;0.40;0.40;;;;;;;12.69;69.05;101482.41;4985649;28;20435;-62
2023/06/04 03:35:58;;;;;;;0.50;0.50;;;;;;;12.56;69.52;101480.91;4984026;28;20049;-62
2023/06/04 03:38:25;;;;;;;0.55;0.55;;;;;;;12.31;70.39;101481.41;5044408;28;20064;-62
2023/06/04 03:40:52;;;;;;;0.45;0.30;;;;;;;12.46;70.56;101483.34;5043693;28;20028;-62
2023/06/04 03:43:19;;;;;;;0.22;0.22;;;;;;;12.69;70.19;101478.91;5051516;28;20033;-61
2023/06/04 03:45:45;;;;;;;0.40;0.30;;;;;;;12.49;70.15;101483.44;5053531;28;20082;-62
2023/06/04 03:48:11;;;;;;;1.10;0.77;;;;;;;12.41;70.13;101478.97;5051503;28;20499;-62
2023/06/04 03:50:37;;;;;;;0.77;0.50;;;;;;;12.60;70.61;101481.00;5040655;28;20068;-62
2023/06/04 03:53:06;;;;;;;0.50;0.50;;;;;;;12.60;70.29;101487.19;5044173;28;20020;-62
2023/06/04 03:55:32;;;;;;;0.80;0.38;;;;;;;12.55;69.50;101482.03;5047811;28;20048;-62
2023/06/04 03:57:59;;;;;;;0.50;0.40;;;;;;;12.60;70.70;101483.72;5051305;28;20108;-62
2023/06/04 04:00:25;;;;;;;0.50;0.50;;;;;;;12.64;70.38;101488.06;5056968;28;20117;-62
2023/06/04 04:02:53;;;;;;;0.50;0.20;;;;;;;12.64;70.49;101479.16;5063802;28;20060;-62
2023/06/04 04:05:28;;;;;;;0.25;0.25;;;;;;;12.68;70.50;101485.44;5036616;28;20534;-62
2023/06/04 04:07:53;;;;;;;0.47;0.40;;;;;;;12.93;69.82;101488.78;5051192;28;20047;-62
2023/06/04 04:10:23;;;;;;;0.70;0.47;;;;;;;12.97;69.80;101492.34;5048710;28;20063;-62
2023/06/04 04:12:50;;;;;;;0.73;0.35;;;;;;;13.04;69.39;101487.94;5051286;28;20057;-62
2023/06/04 04:15:18;;;;;;;7.13;0.57;;;;;;;13.16;68.72;101487.03;5051201;28;20031;-62
2023/06/04 04:17:43;;;;;;;0.85;0.47;;;;;;;13.23;68.24;101484.50;5065030;28;20029;-62
2023/06/04 04:20:09;;;;;;;4.43;0.30;;;;;;;13.23;68.88;101481.78;5047559;28;20078;-62
2023/06/04 04:22:41;;;;;;;0.55;0.40;;;;;;;13.34;68.86;101491.72;5044739;28;20033;-62
2023/06/04 04:25:08;;;;;;;3.22;0.45;;;;;;;13.44;68.57;101493.09;5036253;28;20092;-62
2023/06/04 04:27:38;;;;;;;0.50;0.50;;;;;;;13.51;67.81;101485.91;5051046;28;20040;-60
2023/06/04 04:30:06;;;;;;;0.32;0.32;;;;;;;13.53;67.28;101493.66;5065591;28;20044;-62
2023/06/04 04:32:32;;;;;;;0.45;0.40;;;;;;;13.62;66.72;101493.47;5045147;28;20116;-62
2023/06/04 04:34:58;;;;;;;1.00;0.60;;;;;;;13.64;66.62;101489.28;5050773;28;20116;-62
2023/06/04 04:37:30;;;;;;;0.77;0.68;;;;;;;13.75;66.58;101489.50;5050883;28;20086;-62
2023/06/04 04:39:57;;;;;;;0.38;0.30;;;;;;;13.89;67.05;101489.78;5047990;28;20044;-62
2023/06/04 04:42:24;;;;;;;2.15;0.30;;;;;;;13.94;67.06;101487.59;5050767;28;20391;-62
2023/06/04 04:44:50;;;;;;;0.40;0.40;;;;;;;13.98;67.44;101491.16;5052222;28;20052;-62
2023/06/04 04:47:18;;;;;;;0.35;0.30;;;;;;;13.97;67.06;101495.00;5048025;28;20024;-62
2023/06/04 04:49:43;;;;;;;0.40;0.40;;;;;;;13.95;66.67;101502.72;5052518;28;20044;-61
2023/06/04 04:52:09;;;;;;;0.70;0.50;;;;;;;14.05;66.15;101498.63;5050848;28;20082;-62
2023/06/04 04:54:37;;;;;;;0.43;0.43;;;;;;;14.15;65.90;101504.25;5050380;28;20032;-62
2023/06/04 04:57:03;;;;;;;0.32;0.20;;;;;;;14.26;66.50;101504.47;5049171;28;20039;-62
2023/06/04 04:59:29;;;;;;;0.40;0.40;;;;;;;14.38;66.67;101502.41;5050872;28;20025;-62
2023/06/04 05:01:57;;;;;;;0.47;0.47;;;;;;;14.48;67.17;101505.69;5048699;28;20102;-61
2023/06/04 05:04:22;;;;;;;0.32;0.30;;;;;;;14.52;67.78;101501.13;5033882;28;20027;-62
2023/06/04 05:06:48;;;;;;;0.30;0.30;;;;;;;14.61;67.84;101501.66;5039777;28;20082;-61
2023/06/04 05:09:15;;;;;;;0.28;0.28;;;;;;;14.83;67.29;101511.72;5033564;28;20516;-62
2023/06/04 05:11:41;;;;;;;0.98;0.57;;;;;;;15.14;66.19;101511.44;5050665;28;20431;-62
2023/06/04 05:14:07;;;;;;;0.32;0.20;;;;;;;15.66;65.14;101506.03;5050751;28;20029;-61
2023/06/04 05:16:35;;;;;;;1.10;0.50;;;;;;;16.21;63.69;101509.84;5048728;28;20522;-61
2023/06/04 05:19:01;;;;;;;0.82;0.40;;;;;;;16.62;60.74;101507.97;5051720;28;20116;-62
2023/06/04 05:21:31;;;;;;;0.30;0.30;;;;;;;16.99;59.53;101519.56;5039651;28;20403;-61
2023/06/04 05:24:01;;;;;;;0.63;0.43;;;;;;;17.28;58.84;101507.72;5054865;28;20039;-62
2023/06/04 05:26:32;;;;;;;1.10;0.40;;;;;;;17.55;57.20;101522.72;5049575;28;20064;-62
2023/06/04 05:29:04;;;;;;;0.65;0.40;;;;;;;17.74;57.50;101514.25;5058610;28;20056;-62
2023/06/04 05:31:34;;;;;;;0.50;0.40;;;;;;;17.91;56.76;101527.19;5045677;28;20503;-62
2023/06/04 05:34:06;;;;;;;0.50;0.40;;;;;;;18.18;56.34;101526.88;5064876;28;20534;-62
2023/06/04 05:36:39;;;;;;;0.85;0.43;;;;;;;18.45;55.27;101530.88;5049118;28;20504;-62
2023/06/04 05:39:06;;;;;;;0.85;0.60;;;;;;;18.40;55.17;101528.53;5048693;28;20037;-62
2023/06/04 05:41:45;;;;;;;0.20;0.20;;;;;;;18.72;54.45;101532.09;5041147;28;20025;-62
2023/06/04 05:44:11;;;;;;;1.95;0.50;;;;;;;18.84;54.09;101531.75;5043966;28;20037;-62
2023/06/04 05:46:36;;;;;;;0.52;0.30;;;;;;;18.98;54.24;101525.50;5047184;28;20479;-62
2023/06/04 05:49:02;;;;;;;0.40;0.40;;;;;;;19.23;54.03;101529.00;5048781;28;20456;-61
2023/06/04 05:51:28;;;;;;;0.15;0.15;;;;;;;19.34;53.18;101522.38;5037414;28;20044;-62
2023/06/04 05:53:54;;;;;;;0.75;0.40;;;;;;;19.57;52.60;101539.13;5061505;28;20033;-62
2023/06/04 05:56:21;;;;;;;0.75;0.50;;;;;;;19.66;52.25;101534.06;5050237;28;20040;-61
2023/06/04 05:58:52;;;;;;;0.70;0.55;;;;;;;19.73;52.04;101528.56;5042683;28;20063;-62
2023/06/04 06:01:18;;;;;;;;;;;;;;;19.82;51.37;101528.16;5037684;28;20197;-61
2023/06/04 06:03:43;;;;;;;0.20;0.20;;;;;;;19.84;51.64;101533.97;5041346;28;19963;-61
2023/06/04 06:06:10;;;;;;;0.57;0.30;;;;;;;19.96;50.96;101538.22;5047364;28;20037;-62
2023/06/04 06:08:37;;;;;;;0.40;0.20;;;;;;;20.15;51.74;101548.72;5044677;28;20107;-61
2023/06/04 06:11:04;;;;;;;0.35;0.15;;;;;;;20.21;50.13;101542.44;5031800;28;20438;-62
2023/06/04 06:13:29;;;;;;;0.35;0.35;;;;;;;20.28;50.09;101544.38;5048862;28;20052;-62
2023/06/04 06:15:56;;;;;;;0.30;0.30;;;;;;;20.30;49.80;101542.81;5029575;28;20025;-62
2023/06/04 06:18:21;;;;;;;0.65;0.40;;;;;;;20.36;50.32;101548.66;5042718;28;20033;-62
2023/06/04 06:20:47;;;;;;;0.38;0.38;;;;;;;20.37;50.43;101550.97;5048881;28;20053;-62
2023/06/04 06:23:12;;;;;;;1.55;0.40;;;;;;;20.48;50.68;101548.16;5049930;28;20362;-61
2023/06/04 06:25:45;;;;;;;0.60;0.32;;;;;;;20.49;49.62;101552.47;5043050;28;20067;-62
2023/06/04 06:28:15;;;;;;;0.60;0.40;;;;;;;20.52;50.41;101549.72;5044385;28;20083;-61
2023/06/04 06:30:42;;;;;;;0.57;0.20;;;;;;;20.63;51.20;101550.41;5047104;28;20028;-62
2023/06/04 06:33:08;;;;;;;0.85;0.30;;;;;;;20.75;50.63;101542.94;5043011;28;20086;-62
2023/06/04 06:35:33;;;;;;;0.75;0.55;;;;;;;20.87;51.21;101551.44;5033847;28;20111;-61
2023/06/04 06:37:59;;;;;;;0.30;0.30;;;;;;;20.94;51.58;101559.63;5049042;28;20464;-62
2023/06/04 06:40:24;;;;;;;0.43;0.40;;;;;;;20.92;50.52;101561.97;5049351;28;20025;-62
2023/06/04 06:42:50;;;;;;;0.73;0.30;;;;;;;21.06;50.81;101553.66;5049672;28;20025;-61
2023/06/04 06:45:19;;;;;;;0.35;0.30;;;;;;;21.22;49.69;101555.88;5049810;28;20036;-62
2023/06/04 06:47:45;;;;;;;0.28;0.25;;;;;;;21.31;49.52;101554.22;5048593;28;20078;-62
2023/06/04 06:50:11;;;;;;;1.70;0.40;;;;;;;21.39;49.43;101549.47;5038963;28;20029;-62
2023/06/04 06:52:37;;;;;;;0.65;0.20;;;;;;;21.49;49.57;101554.84;5038893;28;20411;-62
2023/06/04 06:55:05;;;;;;;0.35;0.25;;;;;;;21.53;49.74;101550.09;5049534;28;20024;-62
2023/06/04 06:57:31;;;;;;;0.30;0.20;;;;;;;21.71;49.46;101554.63;5048995;28;20090;-62
2023/06/04 06:59:56;;;;;;;0.43;0.32;;;;;;;21.77;48.77;101550.25;5048502;28;20036;-62
2023/06/04 07:02:22;;;;;;;0.20;0.20;;;;;;;21.87;47.62;101557.63;5045118;28;20057;-61
2023/06/04 07:04:48;;;;;;;5.88;0.40;;;;;;;21.87;46.54;101565.84;5049440;28;20040;-62
2023/06/04 07:07:13;;;;;;;0.80;0.22;;;;;;;21.83;47.68;101562.38;5047786;28;20128;-62
2023/06/04 07:09:39;;;;;;;0.55;0.32;;;;;;;21.86;47.81;101558.78;5044020;28;20044;-62
2023/06/04 07:12:05;;;;;;;0.25;0.25;;;;;;;21.94;48.31;101560.28;5045660;28;20029;-62
2023/06/04 07:14:31;;;;;;;0.60;0.28;;;;;;;22.03;48.43;101566.03;5043049;28;20033;-62
2023/06/04 07:16:56;;;;;;;0.30;0.20;;;;;;;22.20;47.39;101565.06;5045404;28;20021;-62
2023/06/04 07:19:22;;;;;;;0.32;0.30;;;;;;;22.40;47.10;101568.69;5049463;28;20041;-62
2023/06/04 07:21:47;;;;;;;0.25;0.13;;;;;;;22.47;47.21;101568.63;5048418;28;20033;-61
2023/06/04 07:24:13;;;;;;;0.45;0.20;;;;;;;22.55;46.83;101563.81;5048398;28;20112;-63
2023/06/04 07:26:38;;;;;;;0.30;0.30;;;;;;;22.70;47.18;101568.72;5048523;28;20087;-62
2023/06/04 07:29:04;;;;;;;0.35;0.20;;;;;;;22.88;46.31;101560.97;5047016;28;20040;-62
2023/06/04 07:31:29;;;;;;;0.20;0.20;;;;;;;22.93;45.60;101568.75;5042366;28;20032;-62
2023/06/04 07:33:54;;;;;;;0.50;0.30;;;;;;;23.11;45.46;101566.47;5049092;28;20037;-62
2023/06/04 07:36:20;;;;;;;0.35;0.35;;;;;;;22.98;44.55;101560.03;5039449;28;20037;-62
2023/06/04 07:38:46;;;;;;;0.75;0.40;;;;;;;23.07;45.62;101563.00;5046794;28;20032;-62
2023/06/04 07:41:11;;;;;;;0.70;0.20;;;;;;;23.25;45.34;101568.22;5049088;28;20051;-62
2023/06/04 07:43:37;;;;;;;1.17;0.30;;;;;;;23.39;45.81;101570.75;5045664;28;20029;-62
2023/06/04 07:46:03;;;;;;;0.63;0.30;;;;;;;23.48;45.01;101557.22;5047394;28;20033;-62
2023/06/04 07:48:31;;;;;;;0.95;0.28;;;;;;;23.52;43.81;101560.69;5047413;28;20398;-62
2023/06/04 07:51:01;;;;;;;1.52;0.20;;;;;;;23.44;42.41;101567.50;5039452;28;20048;-62
2023/06/04 07:53:26;;;;;;;0.30;0.30;;;;;;;23.66;43.99;101563.19;5061729;28;20037;-62
2023/06/04 07:55:53;;;;;;;0.75;0.30;;;;;;;23.77;42.79;101560.25;5047519;28;20037;-61
2023/06/04 07:58:18;;;;;;;0.45;0.10;;;;;;;23.91;43.47;101554.44;5048436;28;20020;-61
2023/06/04 08:00:44;;;;;;;1.02;0.38;;;;;;;24.08;43.07;101562.38;5036331;28;20411;-61
2023/06/04 08:03:10;;;;;;;0.35;0.30;;;;;;;24.09;44.31;101571.41;5046660;28;20040;-62
2023/06/04 08:05:36;;;;;;;0.60;0.30;;;;;;;24.20;43.43;101568.47;5048790;28;20047;-62
2023/06/04 08:08:01;;;;;;;2.60;0.20;;;;;;;24.32;43.42;101571.31;5047393;28;20029;-61
2023/06/04 08:10:27;;;;;;;0.30;0.30;;;;;;;24.39;43.99;101576.66;5038809;28;20037;-62
2023/06/04 08:12:52;;;;;;;0.32;0.20;;;;;;;24.46;42.72;101573.00;5044980;28;20029;-62
2023/06/04 08:15:38;;;;;;;0.20;0.20;;;;;;;24.46;41.72;101573.78;5047251;28;20032;-62
2023/06/04 08:18:03;;;;;;;0.20;0.20;;;;;;;24.51;41.37;101572.47;4984206;28;20121;-61
2023/06/04 08:20:29;;;;;;;0.55;0.20;;;;;;;24.60;41.47;101578.19;4974243;28;20502;-62
2023/06/04 08:22:54;;;;;;;0.30;0.10;;;;;;;24.61;40.51;101574.22;4986460;28;20416;-62
2023/06/04 08:25:20;;;;;;;0.20;0.10;;;;;;;24.78;40.74;101571.09;4986885;28;20436;-62
2023/06/04 08:27:45;;;;;;;0.52;0.20;;;;;;;24.90;39.91;101573.19;4985146;28;20074;-62
2023/06/04 08:30:11;;;;;;;0.25;0.00;;;;;;;24.93;38.11;101568.78;4990516;28;20460;-61
2023/06/04 08:32:36;;;;;;;0.88;0.30;;;;;;;25.03;39.04;101574.03;4990727;28;20504;-61
2023/06/04 08:35:03;;;;;;;0.10;0.10;;;;;;;25.08;38.46;101570.00;4983296;28;20047;-62
2023/06/04 08:37:28;;;;;;;2.15;0.20;;;;;;;25.09;37.50;101577.03;4984899;28;20501;-62
2023/06/04 08:39:54;;;;;;;1.58;0.17;;;;;;;25.22;37.03;101577.13;4973758;28;20022;-61
2023/06/04 08:42:29;;;;;;;0.55;0.30;;;;;;;25.31;39.01;101577.28;4987900;28;20030;-61
2023/06/04 08:44:56;;;;;;;0.63;0.20;;;;;;;25.46;38.67;101578.50;4986915;28;20030;-61
2023/06/04 08:47:24;;;;;;;0.22;0.15;;;;;;;25.58;36.97;101581.31;4988764;28;20120;-61
2023/06/04 08:49:53;;;;;;;0.20;0.13;;;;;;;25.75;36.73;101576.53;4990350;28;20081;-61
2023/06/04 08:52:21;;;;;;;0.20;0.20;;;;;;;25.82;36.94;101579.13;4988545;28;20058;-61
2023/06/04 08:54:51;;;;;;;0.10;0.10;;;;;;;25.97;37.03;101576.72;5045753;22;20067;-66
2023/06/04 08:57:20;;;;;;;0.15;0.10;;;;;;;26.01;35.39;101569.88;5045768;28;20029;-67
2023/06/04 08:59:46;;;;;;;0.38;0.22;;;;;;;26.09;35.44;101568.50;5052929;28;20078;-67
2023/06/04 09:02:15;;;;;;;0.75;0.20;;;;;;;26.14;36.09;101579.00;5044391;28;20044;-67
2023/06/04 09:04:42;;;;;;;1.65;0.20;;;;;;;26.20;36.91;101582.78;5043591;28;20111;-67
2023/06/04 09:07:10;;;;;;;0.10;0.10;;;;;;;26.27;36.00;101579.78;5051152;28;20058;-67
2023/06/04 09:09:39;;;;;;;0.20;0.10;;;;;;;26.13;35.08;101573.94;5023770;28;20052;-66
2023/06/04 09:12:10;;;;;;;1.30;0.65;;;;;;;26.14;34.87;101579.00;5050983;28;20562;-66
2023/06/04 09:14:35;;;;;;;1.02;0.35;;;;;;;26.23;35.44;101581.88;5052905;28;20389;-67
2023/06/04 09:17:01;;;;;;;1.98;0.30;;;;;;;26.15;35.39;101583.31;5051006;28;20028;-66
2023/06/04 09:19:26;;;;;;;0.47;0.20;;;;;;;26.37;35.15;101580.69;5046834;28;20048;-68
2023/06/04 09:21:56;;;;;;;1.55;0.20;;;;;;;26.45;35.58;101588.34;5052051;28;20032;-68
2023/06/04 09:24:24;;;;;;;0.30;0.23;;;;;;;26.63;36.14;101596.88;5052433;28;20036;-67
2023/06/04 09:26:50;;;;;;;0.50;0.15;;;;;;;26.76;35.18;101591.38;5037297;28;20762;-66
2023/06/04 09:29:16;;;;;;;0.50;0.10;;;;;;;26.95;35.36;101595.88;5049124;28;20035;-67
2023/06/04 09:31:45;;;;;;;0.22;0.22;;;;;;;26.81;34.35;101581.75;5050224;28;20029;-67
2023/06/04 09:34:10;;;;;;;0.10;0.10;;;;;;;27.03;34.22;101590.91;5050661;28;20029;-66
2023/06/04 09:36:36;;;;;;;0.30;0.10;;;;;;;27.18;33.85;101594.72;5043293;28;20044;-66
2023/06/04 09:39:16;;;;;;;0.30;0.10;;;;;;;27.58;32.57;101585.47;5044768;28;20033;-66
2023/06/04 09:41:41;;;;;;;0.20;0.20;;;;;;;27.49;33.75;101585.41;5051652;28;20037;-67
2023/06/04 09:44:10;;;;;;;0.95;0.22;;;;;;;27.56;33.97;101592.69;5051199;28;20021;-67
2023/06/04 09:46:36;;;;;;;0.15;0.10;;;;;;;27.46;33.74;101591.06;5050367;28;20036;-67
2023/06/04 09:49:04;;;;;;;1.98;0.20;;;;;;;27.79;33.35;101597.81;5050694;28;20031;-69
2023/06/04 09:51:31;;;;;;;0.32;0.20;;;;;;;27.84;33.13;101596.44;5044891;28;20036;-68
2023/06/04 09:53:58;;;;;;;0.20;0.20;;;;;;;28.00;33.13;101599.06;5051217;28;20024;-68
2023/06/04 09:56:24;;;;;;;0.40;0.30;;;;;;;28.19;33.93;101590.41;5049187;28;20041;-67
2023/06/04 09:58:54;;;;;;;0.50;0.20;;;;;;;27.52;32.04;101586.50;5047938;28;20024;-67
2023/06/04 10:01:20;;;;;;;0.20;0.20;;;;;;;27.25;33.00;101586.22;5045836;28;20036;-67
2023/06/04 10:03:48;;;;;;;0.20;0.20;;;;;;;27.61;33.58;101583.81;5051320;28;20270;-67
2023/06/04 10:06:17;;;;;;;0.80;0.30;;;;;;;27.83;33.56;101595.69;5043095;28;20031;-67
2023/06/04 10:08:45;;;;;;;0.20;0.10;;;;;;;28.02;33.44;101583.53;5059111;28;20036;-67
2023/06/04 10:11:12;;;;;;;0.15;0.10;;;;;;;28.00;32.86;101585.19;5048733;28;20086;-67
2023/06/04 10:14:28;;;;;;;0.40;0.30;;;;;;;28.22;33.01;101591.50;5048765;28;20039;-67
2023/06/04 10:16:56;;;;;;;0.10;0.10;;;;;;;28.39;33.14;101592.81;5018802;28;20048;-67
2023/06/04 10:19:22;;;;;;;0.50;0.25;;;;;;;28.04;31.89;101586.63;5042589;28;20124;-68
2023/06/04 10:21:48;;;;;;;0.80;0.10;;;;;;;27.94;33.04;101585.00;5043989;28;20096;-67
2023/06/04 10:24:14;;;;;;;0.70;0.38;;;;;;;27.39;32.97;101577.47;5044300;28;20057;-68
2023/06/04 10:26:42;;;;;;;0.57;0.30;;;;;;;27.67;34.78;101565.38;5048128;28;20037;-67
2023/06/04 10:29:08;;;;;;;0.20;0.10;;;;;;;28.22;33.88;101572.09;5049537;28;20090;-67
2023/06/04 10:31:34;;;;;;;0.10;0.10;;;;;;;28.56;33.66;101571.19;5045479;28;20456;-67
2023/06/04 10:34:00;;;;;;;0.40;0.17;;;;;;;28.79;33.55;101576.22;5046027;28;20021;-67
2023/06/04 10:36:25;;;;;;;0.38;0.20;;;;;;;28.76;32.65;101571.59;5039605;28;20040;-67
2023/06/04 10:38:53;;;;;;;0.50;0.20;;;;;;;28.88;32.78;101579.03;5047384;28;20669;-69
2023/06/04 10:41:21;;;;;;;0.38;0.30;;;;;;;28.97;32.88;101579.06;5048916;28;20025;-69
2023/06/04 10:43:51;;;;;;;0.10;0.10;;;;;;;29.01;32.73;101574.91;5041722;28;20040;-68
2023/06/04 10:46:18;;;;;;;0.73;0.38;;;;;;;29.14;31.79;101581.13;5048980;28;20083;-67
2023/06/04 10:48:51;;;;;;;0.28;0.13;;;;;;;28.99;32.45;101580.16;5049018;28;20036;-67
2023/06/04 10:51:30;;;;;;;0.88;0.22;;;;;;;28.73;32.66;101578.03;5036374;28;20057;-67
2023/06/04 10:53:57;;;;;;;0.43;0.20;;;;;;;28.60;32.30;101577.38;5045999;28;20044;-68
2023/06/04 10:56:32;;;;;;;1.80;0.30;;;;;;;28.97;32.47;101579.06;5049624;28;20052;-67
2023/06/04 10:58:58;;;;;;;0.13;0.13;;;;;;;29.24;32.12;101587.47;5048335;28;20040;-67
2023/06/04 11:01:28;;;;;;;0.20;0.20;;;;;;;29.37;32.76;101591.66;5040668;28;20041;-68
2023/06/04 11:03:55;;;;;;;0.20;0.10;;;;;;;29.46;31.98;101588.13;5050116;28;20029;-68
2023/06/04 11:06:21;;;;;;;0.63;0.20;;;;;;;29.73;31.66;101587.38;5045645;28;20090;-68
2023/06/04 11:08:49;;;;;;;0.38;0.22;;;;;;;29.90;31.56;101583.81;5040707;28;20029;-67
2023/06/04 11:11:16;;;;;;;0.20;0.15;;;;;;;30.03;30.89;101581.63;5045515;28;20070;-67
2023/06/04 11:13:43;;;;;;;0.73;0.20;;;;;;;29.92;30.65;101580.56;5048556;28;20017;-67
2023/06/04 11:16:19;;;;;;;0.57;0.20;;;;;;;29.92;31.05;101580.56;5047944;28;20098;-68
2023/06/04 11:18:58;;;;;;;0.55;0.20;;;;;;;30.08;30.91;101583.00;5043594;28;20128;-68
2023/06/04 11:21:24;;;;;;;0.38;0.15;;;;;;;30.12;29.98;101578.06;5044183;28;20029;-69
2023/06/04 11:23:56;;;;;;;0.43;0.32;;;;;;;29.66;28.93;101577.28;5049412;28;20079;-68
2023/06/04 11:26:22;;;;;;;0.25;0.25;;;;;;;29.21;30.24;101572.50;5041191;28;20493;-69
2023/06/04 11:28:50;;;;;;;0.60;0.30;;;;;;;29.47;30.70;101580.53;5050240;28;20040;-68